KFTW/FTW METAR and TAF weather

Enter ICAO airport designator
Station Type Date Time Source
KFTW METAR 2023/01/30 10:53 UTC NOAA

KFTW 301053Z 34012KT 9SM OVC009 M03/M04 A3027 RMK AO2 SLP258 T10331044 $


Station Type Date Time Source
KFTW Decoded METAR 2023/01/30 10:53 UTC NOAA

FORT WORTH MEACHAM INTERNATIONAL ., TX, United States (KFTW) 32-50N 097-22W 214M
Jan 30, 2023 - 05:53 AM EST / 2023.01.30 1053 UTC
Wind: from the NNW (340 degrees) at 14 MPH (12 KT):0
Visibility: 9 mile(s):0
Sky conditions: overcast
Temperature: 26.1 F (-3.3 C)
Windchill: 14 F (-10 C):1
Dew Point: 24.1 F (-4.4 C)
Relative Humidity: 92%
Pressure (altimeter): 30.27 in. Hg (1025 hPa)
ob: KFTW 301053Z 34012KT 9SM OVC009 M03/M04 A3027 RMK AO2 SLP258 T10331044
cycle: 11

Station Type Date Time Source
KFTW TAF 2023/01/30 12:42 UTC NOAA

TAF
AMD KFTW 301138Z 3012/3112 34013KT P6SM OVC009
TEMPO 3013/3015 4SM -FZRA BR OVC011
FM301500 35015KT P6SM OVC011
FM302000 35013KT P6SM -FZRAPL OVC015
FM310000 36011KT P6SM -FZRAPL OVC022
FM310300 01010KT P6SM OVC013

Example: see airport list